sensor_id;sensor_type;location;lat;lon;timestamp;temperature;humidity
2763;DHT22;1389;51.490;7.338;2023-02-02T00:01:27;5.80;99.30
2763;DHT22;1389;51.490;7.338;2023-02-02T00:03:53;5.70;99.30
2763;DHT22;1389;51.490;7.338;2023-02-02T00:06:22;5.70;99.30
2763;DHT22;1389;51.490;7.338;2023-02-02T00:08:49;5.70;99.30
2763;DHT22;1389;51.490;7.338;2023-02-02T00:11:15;5.70;99.30
2763;DHT22;1389;51.490;7.338;2023-02-02T00:13:45;5.80;99.30
2763;DHT22;1389;51.490;7.338;2023-02-02T00:19:05;5.80;99.30
2763;DHT22;1389;51.490;7.338;2023-02-02T00:21:31;5.80;99.30
2763;DHT22;1389;51.490;7.338;2023-02-02T00:23:57;5.90;99.30
2763;DHT22;1389;51.490;7.338;2023-02-02T00:26:24;5.90;99.30
2763;DHT22;1389;51.490;7.338;2023-02-02T00:28:51;5.80;99.30
2763;DHT22;1389;51.490;7.338;2023-02-02T00:31:17;5.90;99.30
2763;DHT22;1389;51.490;7.338;2023-02-02T00:33:44;5.80;99.30
2763;DHT22;1389;51.490;7.338;2023-02-02T00:36:10;5.80;99.30
2763;DHT22;1389;51.490;7.338;2023-02-02T00:38:36;5.80;99.30
2763;DHT22;1389;51.490;7.338;2023-02-02T00:41:03;5.80;99.30
2763;DHT22;1389;51.490;7.338;2023-02-02T00:43:29;5.80;99.30
2763;DHT22;1389;51.490;7.338;2023-02-02T00:45:56;5.80;99.30
2763;DHT22;1389;51.490;7.338;2023-02-02T00:48:22;5.80;99.30
2763;DHT22;1389;51.490;7.338;2023-02-02T00:50:48;5.80;99.30
2763;DHT22;1389;51.490;7.338;2023-02-02T00:53:14;5.80;99.30
2763;DHT22;1389;51.490;7.338;2023-02-02T00:55:40;5.80;99.30
2763;DHT22;1389;51.490;7.338;2023-02-02T00:58:06;5.80;99.30
2763;DHT22;1389;51.490;7.338;2023-02-02T01:00:32;5.90;99.30
2763;DHT22;1389;51.490;7.338;2023-02-02T01:02:58;5.90;99.30
2763;DHT22;1389;51.490;7.338;2023-02-02T01:05:30;5.80;99.30
2763;DHT22;1389;51.490;7.338;2023-02-02T01:07:56;5.90;99.30
2763;DHT22;1389;51.490;7.338;2023-02-02T01:10:22;5.90;99.30
2763;DHT22;1389;51.490;7.338;2023-02-02T01:12:48;5.90;99.30
2763;DHT22;1389;51.490;7.338;2023-02-02T01:15:15;5.90;99.30
2763;DHT22;1389;51.490;7.338;2023-02-02T01:17:41;6.00;99.30
2763;DHT22;1389;51.490;7.338;2023-02-02T01:20:13;6.00;99.30
2763;DHT22;1389;51.490;7.338;2023-02-02T01:22:40;6.00;99.30
2763;DHT22;1389;51.490;7.338;2023-02-02T01:25:07;6.00;99.30
2763;DHT22;1389;51.490;7.338;2023-02-02T01:27:33;6.10;99.30
2763;DHT22;1389;51.490;7.338;2023-02-02T01:29:59;6.10;99.30
2763;DHT22;1389;51.490;7.338;2023-02-02T01:32:25;6.10;99.30
2763;DHT22;1389;51.490;7.338;2023-02-02T01:34:51;6.10;99.30
2763;DHT22;1389;51.490;7.338;2023-02-02T01:37:17;6.10;99.30
2763;DHT22;1389;51.490;7.338;2023-02-02T01:39:43;6.20;99.30
2763;DHT22;1389;51.490;7.338;2023-02-02T01:42:14;6.20;99.30
2763;DHT22;1389;51.490;7.338;2023-02-02T01:47:40;6.20;99.30
2763;DHT22;1389;51.490;7.338;2023-02-02T01:50:07;6.20;99.30
2763;DHT22;1389;51.490;7.338;2023-02-02T01:52:35;6.30;99.30
2763;DHT22;1389;51.490;7.338;2023-02-02T01:55:06;6.30;99.30
2763;DHT22;1389;51.490;7.338;2023-02-02T01:57:42;6.30;99.30
2763;DHT22;1389;51.490;7.338;2023-02-02T02:00:12;6.40;99.30
2763;DHT22;1389;51.490;7.338;2023-02-02T02:02:42;6.40;99.30
2763;DHT22;1389;51.490;7.338;2023-02-02T02:05:10;6.40;99.30
2763;DHT22;1389;51.490;7.338;2023-02-02T02:07:39;6.40;99.30
2763;DHT22;1389;51.490;7.338;2023-02-02T02:10:07;6.40;99.30
2763;DHT22;1389;51.490;7.338;2023-02-02T02:12:33;6.50;99.30
2763;DHT22;1389;51.490;7.338;2023-02-02T02:14:59;6.50;99.30
2763;DHT22;1389;51.490;7.338;2023-02-02T02:37:22;6.80;99.30
2763;DHT22;1389;51.490;7.338;2023-02-02T02:40:01;6.80;99.30
2763;DHT22;1389;51.490;7.338;2023-02-02T02:42:33;6.80;99.30
2763;DHT22;1389;51.490;7.338;2023-02-02T02:45:02;6.80;99.30
2763;DHT22;1389;51.490;7.338;2023-02-02T02:47:30;6.80;99.30
2763;DHT22;1389;51.490;7.338;2023-02-02T02:49:57;6.80;99.30
2763;DHT22;1389;51.490;7.338;2023-02-02T02:52:23;6.80;99.30
2763;DHT22;1389;51.490;7.338;2023-02-02T02:54:54;6.80;99.30
2763;DHT22;1389;51.490;7.338;2023-02-02T03:02:50;6.90;99.30
2763;DHT22;1389;51.490;7.338;2023-02-02T03:08:09;6.90;99.30
2763;DHT22;1389;51.490;7.338;2023-02-02T03:10:37;6.90;99.30
2763;DHT22;1389;51.490;7.338;2023-02-02T03:13:08;6.90;99.30
2763;DHT22;1389;51.490;7.338;2023-02-02T03:15:35;6.90;99.30
2763;DHT22;1389;51.490;7.338;2023-02-02T03:18:01;6.90;99.30
2763;DHT22;1389;51.490;7.338;2023-02-02T03:20:27;6.90;99.30
2763;DHT22;1389;51.490;7.338;2023-02-02T03:22:53;6.90;99.30
2763;DHT22;1389;51.490;7.338;2023-02-02T03:25:19;6.90;99.30
2763;DHT22;1389;51.490;7.338;2023-02-02T03:27:45;6.80;99.30
2763;DHT22;1389;51.490;7.338;2023-02-02T03:30:13;6.90;99.30
2763;DHT22;1389;51.490;7.338;2023-02-02T03:32:39;6.90;99.30
2763;DHT22;1389;51.490;7.338;2023-02-02T03:35:06;6.90;99.30
2763;DHT22;1389;51.490;7.338;2023-02-02T03:37:32;6.80;99.30
2763;DHT22;1389;51.490;7.338;2023-02-02T03:39:58;6.80;99.30
2763;DHT22;1389;51.490;7.338;2023-02-02T03:42:25;6.80;99.30
2763;DHT22;1389;51.490;7.338;2023-02-02T03:44:51;6.90;99.30
2763;DHT22;1389;51.490;7.338;2023-02-02T03:47:17;6.90;99.30
2763;DHT22;1389;51.490;7.338;2023-02-02T03:49:43;6.80;99.30
2763;DHT22;1389;51.490;7.338;2023-02-02T03:52:09;6.80;99.30
2763;DHT22;1389;51.490;7.338;2023-02-02T03:54:35;6.70;99.30
2763;DHT22;1389;51.490;7.338;2023-02-02T03:57:01;6.70;99.30
2763;DHT22;1389;51.490;7.338;2023-02-02T03:59:27;6.70;99.30
2763;DHT22;1389;51.490;7.338;2023-02-02T04:01:53;6.70;99.30
2763;DHT22;1389;51.490;7.338;2023-02-02T04:04:19;6.80;99.30
2763;DHT22;1389;51.490;7.338;2023-02-02T04:06:45;6.80;99.30
2763;DHT22;1389;51.490;7.338;2023-02-02T04:09:11;6.80;99.30
2763;DHT22;1389;51.490;7.338;2023-02-02T04:11:37;6.80;99.30
2763;DHT22;1389;51.490;7.338;2023-02-02T04:14:03;6.80;99.30
2763;DHT22;1389;51.490;7.338;2023-02-02T04:16:29;6.80;99.30
2763;DHT22;1389;51.490;7.338;2023-02-02T04:18:59;6.80;99.30
2763;DHT22;1389;51.490;7.338;2023-02-02T04:21:25;6.80;99.30
2763;DHT22;1389;51.490;7.338;2023-02-02T04:23:51;6.80;99.30
2763;DHT22;1389;51.490;7.338;2023-02-02T04:26:17;6.80;99.30
2763;DHT22;1389;51.490;7.338;2023-02-02T04:28:43;6.80;99.30
2763;DHT22;1389;51.490;7.338;2023-02-02T04:31:09;6.80;99.30
2763;DHT22;1389;51.490;7.338;2023-02-02T04:33:35;6.80;99.30
2763;DHT22;1389;51.490;7.338;2023-02-02T04:36:02;6.80;99.30
2763;DHT22;1389;51.490;7.338;2023-02-02T04:38:28;6.80;99.30
2763;DHT22;1389;51.490;7.338;2023-02-02T04:40:54;6.90;99.30
2763;DHT22;1389;51.490;7.338;2023-02-02T04:43:21;6.90;99.30
2763;DHT22;1389;51.490;7.338;2023-02-02T04:45:47;6.90;99.30
2763;DHT22;1389;51.490;7.338;2023-02-02T04:48:13;6.90;99.30
2763;DHT22;1389;51.490;7.338;2023-02-02T04:50:39;6.90;99.30
2763;DHT22;1389;51.490;7.338;2023-02-02T04:53:05;7.00;99.30
2763;DHT22;1389;51.490;7.338;2023-02-02T04:55:35;6.90;99.30
2763;DHT22;1389;51.490;7.338;2023-02-02T04:58:01;6.90;99.30
2763;DHT22;1389;51.490;7.338;2023-02-02T05:00:27;6.90;99.30
2763;DHT22;1389;51.490;7.338;2023-02-02T05:02:53;7.00;99.30
2763;DHT22;1389;51.490;7.338;2023-02-02T05:05:19;7.00;99.30
2763;DHT22;1389;51.490;7.338;2023-02-02T05:07:45;7.00;99.30
2763;DHT22;1389;51.490;7.338;2023-02-02T05:10:11;6.90;99.30
2763;DHT22;1389;51.490;7.338;2023-02-02T05:12:37;7.00;99.30
2763;DHT22;1389;51.490;7.338;2023-02-02T05:15:04;7.00;99.30
2763;DHT22;1389;51.490;7.338;2023-02-02T05:17:31;7.00;99.30
2763;DHT22;1389;51.490;7.338;2023-02-02T05:19:57;7.00;99.30
2763;DHT22;1389;51.490;7.338;2023-02-02T05:22:23;7.00;99.30
2763;DHT22;1389;51.490;7.338;2023-02-02T05:24:49;7.10;99.30
2763;DHT22;1389;51.490;7.338;2023-02-02T05:27:15;7.10;99.30
2763;DHT22;1389;51.490;7.338;2023-02-02T05:29:41;7.10;99.30
2763;DHT22;1389;51.490;7.338;2023-02-02T05:32:07;7.10;99.30
2763;DHT22;1389;51.490;7.338;2023-02-02T05:34:33;7.10;99.30
2763;DHT22;1389;51.490;7.338;2023-02-02T05:36:59;7.10;99.30
2763;DHT22;1389;51.490;7.338;2023-02-02T05:39:25;7.20;99.30
2763;DHT22;1389;51.490;7.338;2023-02-02T05:41:51;7.20;99.30
2763;DHT22;1389;51.490;7.338;2023-02-02T05:44:17;7.10;99.30
2763;DHT22;1389;51.490;7.338;2023-02-02T05:46:43;7.20;99.30
2763;DHT22;1389;51.490;7.338;2023-02-02T05:49:12;7.10;99.30
2763;DHT22;1389;51.490;7.338;2023-02-02T05:51:53;7.20;99.30
2763;DHT22;1389;51.490;7.338;2023-02-02T05:54:20;7.20;99.30
2763;DHT22;1389;51.490;7.338;2023-02-02T05:56:47;7.20;99.30
2763;DHT22;1389;51.490;7.338;2023-02-02T05:59:13;7.20;99.30
2763;DHT22;1389;51.490;7.338;2023-02-02T06:01:40;7.20;99.30
2763;DHT22;1389;51.490;7.338;2023-02-02T06:04:06;7.20;99.30
2763;DHT22;1389;51.490;7.338;2023-02-02T06:06:32;7.20;99.30
2763;DHT22;1389;51.490;7.338;2023-02-02T06:09:01;7.10;99.30
2763;DHT22;1389;51.490;7.338;2023-02-02T06:11:27;7.20;99.30
2763;DHT22;1389;51.490;7.338;2023-02-02T06:13:53;7.20;99.30
2763;DHT22;1389;51.490;7.338;2023-02-02T06:16:19;7.20;99.30
2763;DHT22;1389;51.490;7.338;2023-02-02T06:18:45;7.20;99.30
2763;DHT22;1389;51.490;7.338;2023-02-02T06:21:11;7.20;99.30
2763;DHT22;1389;51.490;7.338;2023-02-02T06:23:37;7.20;99.30
2763;DHT22;1389;51.490;7.338;2023-02-02T06:26:08;7.20;99.30
2763;DHT22;1389;51.490;7.338;2023-02-02T06:28:34;7.20;99.30
2763;DHT22;1389;51.490;7.338;2023-02-02T06:31:08;7.20;99.30
2763;DHT22;1389;51.490;7.338;2023-02-02T06:33:35;7.20;99.30
2763;DHT22;1389;51.490;7.338;2023-02-02T06:36:03;7.20;99.30
2763;DHT22;1389;51.490;7.338;2023-02-02T06:38:30;7.20;99.30
2763;DHT22;1389;51.490;7.338;2023-02-02T06:41:00;7.30;99.30
2763;DHT22;1389;51.490;7.338;2023-02-02T06:43:28;7.30;99.30
2763;DHT22;1389;51.490;7.338;2023-02-02T06:45:56;7.30;99.30
2763;DHT22;1389;51.490;7.338;2023-02-02T06:48:22;7.30;99.30
2763;DHT22;1389;51.490;7.338;2023-02-02T06:50:48;7.30;99.30
2763;DHT22;1389;51.490;7.338;2023-02-02T06:53:14;7.30;99.30
2763;DHT22;1389;51.490;7.338;2023-02-02T06:55:54;7.30;99.30
2763;DHT22;1389;51.490;7.338;2023-02-02T06:58:20;7.30;99.30
2763;DHT22;1389;51.490;7.338;2023-02-02T07:00:46;7.30;99.30
2763;DHT22;1389;51.490;7.338;2023-02-02T07:03:16;7.30;99.30
2763;DHT22;1389;51.490;7.338;2023-02-02T07:05:43;7.30;99.30
2763;DHT22;1389;51.490;7.338;2023-02-02T07:08:09;7.30;99.30
2763;DHT22;1389;51.490;7.338;2023-02-02T07:10:39;7.30;99.30
2763;DHT22;1389;51.490;7.338;2023-02-02T07:13:05;7.30;99.30
2763;DHT22;1389;51.490;7.338;2023-02-02T07:15:37;7.30;99.30
2763;DHT22;1389;51.490;7.338;2023-02-02T07:18:03;7.30;99.30
2763;DHT22;1389;51.490;7.338;2023-02-02T07:20:29;7.30;99.30
2763;DHT22;1389;51.490;7.338;2023-02-02T07:22:56;7.30;99.30
2763;DHT22;1389;51.490;7.338;2023-02-02T07:25:22;7.30;99.30
2763;DHT22;1389;51.490;7.338;2023-02-02T07:27:52;7.30;99.30
2763;DHT22;1389;51.490;7.338;2023-02-02T07:30:19;7.30;99.30
2763;DHT22;1389;51.490;7.338;2023-02-02T07:32:46;7.40;99.30
2763;DHT22;1389;51.490;7.338;2023-02-02T07:35:13;7.30;99.30
2763;DHT22;1389;51.490;7.338;2023-02-02T07:37:39;7.30;99.30
2763;DHT22;1389;51.490;7.338;2023-02-02T07:40:06;7.30;99.30
2763;DHT22;1389;51.490;7.338;2023-02-02T07:42:32;7.40;99.30
2763;DHT22;1389;51.490;7.338;2023-02-02T07:44:58;7.40;99.30
2763;DHT22;1389;51.490;7.338;2023-02-02T07:47:25;7.30;99.30
2763;DHT22;1389;51.490;7.338;2023-02-02T07:49:51;7.30;99.30
2763;DHT22;1389;51.490;7.338;2023-02-02T07:52:17;7.40;99.30
2763;DHT22;1389;51.490;7.338;2023-02-02T07:54:43;7.40;99.30
2763;DHT22;1389;51.490;7.338;2023-02-02T07:57:10;7.40;99.30
2763;DHT22;1389;51.490;7.338;2023-02-02T07:59:38;7.40;99.30
2763;DHT22;1389;51.490;7.338;2023-02-02T08:02:04;7.40;99.30
2763;DHT22;1389;51.490;7.338;2023-02-02T08:04:30;7.40;99.30
2763;DHT22;1389;51.490;7.338;2023-02-02T08:06:59;7.40;99.30
2763;DHT22;1389;51.490;7.338;2023-02-02T08:09:25;7.40;99.30
2763;DHT22;1389;51.490;7.338;2023-02-02T08:11:51;7.40;99.30
2763;DHT22;1389;51.490;7.338;2023-02-02T08:14:17;7.40;99.30
2763;DHT22;1389;51.490;7.338;2023-02-02T08:16:43;7.40;99.30
2763;DHT22;1389;51.490;7.338;2023-02-02T08:19:10;7.40;99.30
2763;DHT22;1389;51.490;7.338;2023-02-02T08:21:36;7.40;99.30
2763;DHT22;1389;51.490;7.338;2023-02-02T08:24:02;7.40;99.30
2763;DHT22;1389;51.490;7.338;2023-02-02T08:26:30;7.40;99.30
2763;DHT22;1389;51.490;7.338;2023-02-02T08:29:01;7.40;99.30
2763;DHT22;1389;51.490;7.338;2023-02-02T08:31:36;7.30;99.30
2763;DHT22;1389;51.490;7.338;2023-02-02T08:34:03;7.40;99.30
2763;DHT22;1389;51.490;7.338;2023-02-02T08:36:30;7.40;99.30
2763;DHT22;1389;51.490;7.338;2023-02-02T08:39:03;7.40;99.30
2763;DHT22;1389;51.490;7.338;2023-02-02T08:41:30;7.40;99.30
2763;DHT22;1389;51.490;7.338;2023-02-02T08:43:56;7.50;99.30
2763;DHT22;1389;51.490;7.338;2023-02-02T08:46:22;7.50;99.30
2763;DHT22;1389;51.490;7.338;2023-02-02T08:48:48;7.50;99.30
2763;DHT22;1389;51.490;7.338;2023-02-02T08:51:17;7.40;99.30
2763;DHT22;1389;51.490;7.338;2023-02-02T08:53:44;7.50;99.30
2763;DHT22;1389;51.490;7.338;2023-02-02T08:56:11;7.40;99.30
2763;DHT22;1389;51.490;7.338;2023-02-02T08:58:38;7.50;99.30
2763;DHT22;1389;51.490;7.338;2023-02-02T09:01:08;7.50;99.30
2763;DHT22;1389;51.490;7.338;2023-02-02T09:03:36;7.50;99.30
2763;DHT22;1389;51.490;7.338;2023-02-02T09:06:06;7.50;99.30
2763;DHT22;1389;51.490;7.338;2023-02-02T09:08:32;7.50;99.30
2763;DHT22;1389;51.490;7.338;2023-02-02T09:11:15;7.50;99.30
2763;DHT22;1389;51.490;7.338;2023-02-02T09:13:46;7.50;99.30
2763;DHT22;1389;51.490;7.338;2023-02-02T09:16:16;7.50;99.30
2763;DHT22;1389;51.490;7.338;2023-02-02T09:18:43;7.50;99.30
2763;DHT22;1389;51.490;7.338;2023-02-02T09:21:11;7.50;99.30
2763;DHT22;1389;51.490;7.338;2023-02-02T09:23:39;7.50;99.30
2763;DHT22;1389;51.490;7.338;2023-02-02T09:28:39;7.50;99.30
2763;DHT22;1389;51.490;7.338;2023-02-02T09:31:06;7.50;99.30
2763;DHT22;1389;51.490;7.338;2023-02-02T09:33:32;7.50;99.30
2763;DHT22;1389;51.490;7.338;2023-02-02T09:36:19;7.60;99.30
2763;DHT22;1389;51.490;7.338;2023-02-02T09:38:46;7.60;99.30
2763;DHT22;1389;51.490;7.338;2023-02-02T09:44:15;7.60;99.30
2763;DHT22;1389;51.490;7.338;2023-02-02T09:46:57;7.60;99.30
2763;DHT22;1389;51.490;7.338;2023-02-02T09:52:03;7.60;99.30
2763;DHT22;1389;51.490;7.338;2023-02-02T09:54:39;7.60;99.30
2763;DHT22;1389;51.490;7.338;2023-02-02T09:57:15;7.60;99.30
2763;DHT22;1389;51.490;7.338;2023-02-02T09:59:43;7.60;99.30
2763;DHT22;1389;51.490;7.338;2023-02-02T10:02:34;7.60;99.30
2763;DHT22;1389;51.490;7.338;2023-02-02T10:05:15;7.60;99.30
2763;DHT22;1389;51.490;7.338;2023-02-02T10:07:45;7.60;99.30
2763;DHT22;1389;51.490;7.338;2023-02-02T10:10:26;7.60;99.30
2763;DHT22;1389;51.490;7.338;2023-02-02T10:12:56;7.60;99.30
2763;DHT22;1389;51.490;7.338;2023-02-02T10:20:59;7.60;99.30
2763;DHT22;1389;51.490;7.338;2023-02-02T10:23:30;7.60;99.30
2763;DHT22;1389;51.490;7.338;2023-02-02T10:26:20;7.60;99.30
2763;DHT22;1389;51.490;7.338;2023-02-02T10:31:52;7.60;99.30
2763;DHT22;1389;51.490;7.338;2023-02-02T10:34:43;7.60;99.30
2763;DHT22;1389;51.490;7.338;2023-02-02T10:37:50;7.60;99.30
2763;DHT22;1389;51.490;7.338;2023-02-02T10:41:10;7.60;99.30
2763;DHT22;1389;51.490;7.338;2023-02-02T10:46:03;7.60;99.30
2763;DHT22;1389;51.490;7.338;2023-02-02T10:48:34;7.60;99.30
2763;DHT22;1389;51.490;7.338;2023-02-02T10:51:06;7.60;99.30
2763;DHT22;1389;51.490;7.338;2023-02-02T10:53:37;7.60;99.30
2763;DHT22;1389;51.490;7.338;2023-02-02T10:56:07;7.60;99.30
2763;DHT22;1389;51.490;7.338;2023-02-02T10:58:51;7.60;99.30
2763;DHT22;1389;51.490;7.338;2023-02-02T11:01:19;7.50;99.30
2763;DHT22;1389;51.490;7.338;2023-02-02T11:03:47;7.50;99.30
2763;DHT22;1389;51.490;7.338;2023-02-02T11:06:14;7.60;99.30
2763;DHT22;1389;51.490;7.338;2023-02-02T11:08:59;7.60;99.30
2763;DHT22;1389;51.490;7.338;2023-02-02T11:11:40;7.60;99.30
2763;DHT22;1389;51.490;7.338;2023-02-02T11:14:10;7.60;99.30
2763;DHT22;1389;51.490;7.338;2023-02-02T11:16:43;7.60;99.30
2763;DHT22;1389;51.490;7.338;2023-02-02T11:21:45;7.60;99.30
2763;DHT22;1389;51.490;7.338;2023-02-02T11:27:14;7.60;99.30
2763;DHT22;1389;51.490;7.338;2023-02-02T11:29:47;7.60;99.30
2763;DHT22;1389;51.490;7.338;2023-02-02T11:32:33;7.70;99.30
2763;DHT22;1389;51.490;7.338;2023-02-02T11:35:17;7.60;99.30
2763;DHT22;1389;51.490;7.338;2023-02-02T11:37:57;7.60;99.30
2763;DHT22;1389;51.490;7.338;2023-02-02T11:40:29;7.60;99.30
2763;DHT22;1389;51.490;7.338;2023-02-02T11:42:58;7.70;99.30
2763;DHT22;1389;51.490;7.338;2023-02-02T11:45:39;7.70;99.30
2763;DHT22;1389;51.490;7.338;2023-02-02T11:48:18;7.70;99.30
2763;DHT22;1389;51.490;7.338;2023-02-02T11:53:26;7.70;99.30
2763;DHT22;1389;51.490;7.338;2023-02-02T11:55:53;7.70;99.30
2763;DHT22;1389;51.490;7.338;2023-02-02T11:58:23;7.70;99.30
2763;DHT22;1389;51.490;7.338;2023-02-02T12:01:02;7.70;99.30
2763;DHT22;1389;51.490;7.338;2023-02-02T12:03:36;7.70;99.30
2763;DHT22;1389;51.490;7.338;2023-02-02T12:06:23;7.70;99.30
2763;DHT22;1389;51.490;7.338;2023-02-02T12:08:56;7.70;99.30
2763;DHT22;1389;51.490;7.338;2023-02-02T12:14:24;7.70;99.30
2763;DHT22;1389;51.490;7.338;2023-02-02T12:19:51;7.70;99.30
2763;DHT22;1389;51.490;7.338;2023-02-02T12:22:44;7.70;99.30
2763;DHT22;1389;51.490;7.338;2023-02-02T12:31:25;7.70;99.30
2763;DHT22;1389;51.490;7.338;2023-02-02T12:36:44;7.70;99.30
2763;DHT22;1389;51.490;7.338;2023-02-02T12:42:27;7.70;99.30
2763;DHT22;1389;51.490;7.338;2023-02-02T12:50:29;7.70;99.30
2763;DHT22;1389;51.490;7.338;2023-02-02T12:56:44;7.80;99.30
2763;DHT22;1389;51.490;7.338;2023-02-02T13:02:21;7.80;99.30
2763;DHT22;1389;51.490;7.338;2023-02-02T13:07:43;7.80;99.30
2763;DHT22;1389;51.490;7.338;2023-02-02T13:10:17;7.80;99.30
2763;DHT22;1389;51.490;7.338;2023-02-02T13:12:56;7.80;99.30
2763;DHT22;1389;51.490;7.338;2023-02-02T13:15:39;7.80;99.30
2763;DHT22;1389;51.490;7.338;2023-02-02T13:18:14;7.80;99.30
2763;DHT22;1389;51.490;7.338;2023-02-02T13:20:47;7.80;99.30
2763;DHT22;1389;51.490;7.338;2023-02-02T13:23:24;7.80;99.30
2763;DHT22;1389;51.490;7.338;2023-02-02T13:26:13;7.80;99.30
2763;DHT22;1389;51.490;7.338;2023-02-02T13:29:12;7.80;99.30
2763;DHT22;1389;51.490;7.338;2023-02-02T13:31:46;7.80;99.30
2763;DHT22;1389;51.490;7.338;2023-02-02T13:34:40;7.80;99.30
2763;DHT22;1389;51.490;7.338;2023-02-02T13:39:46;7.80;99.30
2763;DHT22;1389;51.490;7.338;2023-02-02T13:42:29;7.80;99.30
2763;DHT22;1389;51.490;7.338;2023-02-02T13:45:02;7.80;99.30
2763;DHT22;1389;51.490;7.338;2023-02-02T13:47:46;7.90;99.30
2763;DHT22;1389;51.490;7.338;2023-02-02T13:50:16;7.80;99.30
2763;DHT22;1389;51.490;7.338;2023-02-02T13:53:28;7.90;99.30
2763;DHT22;1389;51.490;7.338;2023-02-02T13:58:54;7.90;99.30
2763;DHT22;1389;51.490;7.338;2023-02-02T14:01:26;7.90;99.30
2763;DHT22;1389;51.490;7.338;2023-02-02T14:03:54;7.90;99.30
2763;DHT22;1389;51.490;7.338;2023-02-02T14:06:23;7.90;99.30
2763;DHT22;1389;51.490;7.338;2023-02-02T14:09:04;7.90;99.30
2763;DHT22;1389;51.490;7.338;2023-02-02T14:11:36;7.90;99.30
2763;DHT22;1389;51.490;7.338;2023-02-02T14:16:54;7.90;99.30
2763;DHT22;1389;51.490;7.338;2023-02-02T14:42:50;7.90;99.30
2763;DHT22;1389;51.490;7.338;2023-02-02T14:45:43;7.90;99.30
2763;DHT22;1389;51.490;7.338;2023-02-02T14:48:17;7.90;99.30
2763;DHT22;1389;51.490;7.338;2023-02-02T14:50:52;7.90;99.30
2763;DHT22;1389;51.490;7.338;2023-02-02T14:53:26;7.90;99.30
2763;DHT22;1389;51.490;7.338;2023-02-02T14:56:03;7.90;99.30
2763;DHT22;1389;51.490;7.338;2023-02-02T15:03:55;7.90;99.30
2763;DHT22;1389;51.490;7.338;2023-02-02T15:20:11;7.90;99.30
2763;DHT22;1389;51.490;7.338;2023-02-02T15:25:31;7.90;99.30
2763;DHT22;1389;51.490;7.338;2023-02-02T15:30:50;7.90;99.30
2763;DHT22;1389;51.490;7.338;2023-02-02T15:33:29;7.90;99.30
2763;DHT22;1389;51.490;7.338;2023-02-02T15:35:58;7.90;99.30
2763;DHT22;1389;51.490;7.338;2023-02-02T15:38:33;7.90;99.30
2763;DHT22;1389;51.490;7.338;2023-02-02T15:41:05;7.90;99.30
2763;DHT22;1389;51.490;7.338;2023-02-02T15:43:33;7.90;99.30
2763;DHT22;1389;51.490;7.338;2023-02-02T15:46:05;7.90;99.30
2763;DHT22;1389;51.490;7.338;2023-02-02T15:48:32;7.90;99.30
2763;DHT22;1389;51.490;7.338;2023-02-02T15:51:05;7.90;99.30
2763;DHT22;1389;51.490;7.338;2023-02-02T15:58:52;7.90;99.30
2763;DHT22;1389;51.490;7.338;2023-02-02T16:01:21;7.90;99.30
2763;DHT22;1389;51.490;7.338;2023-02-02T16:06:32;7.90;99.30
2763;DHT22;1389;51.490;7.338;2023-02-02T16:09:04;7.90;99.30
2763;DHT22;1389;51.490;7.338;2023-02-02T16:11:30;7.90;99.30
2763;DHT22;1389;51.490;7.338;2023-02-02T16:14:02;7.90;99.30
2763;DHT22;1389;51.490;7.338;2023-02-02T16:16:34;7.80;99.30
2763;DHT22;1389;51.490;7.338;2023-02-02T16:24:24;7.80;99.30
2763;DHT22;1389;51.490;7.338;2023-02-02T16:26:54;7.80;99.30
2763;DHT22;1389;51.490;7.338;2023-02-02T16:29:22;7.80;99.30
2763;DHT22;1389;51.490;7.338;2023-02-02T16:31:49;7.90;99.30
2763;DHT22;1389;51.490;7.338;2023-02-02T16:34:18;7.90;99.30
2763;DHT22;1389;51.490;7.338;2023-02-02T16:37:05;7.90;99.30
2763;DHT22;1389;51.490;7.338;2023-02-02T16:39:31;7.90;99.30
2763;DHT22;1389;51.490;7.338;2023-02-02T16:42:27;7.90;99.30
2763;DHT22;1389;51.490;7.338;2023-02-02T16:44:58;7.80;99.30
2763;DHT22;1389;51.490;7.338;2023-02-02T16:50:22;7.90;99.30
2763;DHT22;1389;51.490;7.338;2023-02-02T16:53:02;7.90;99.30
2763;DHT22;1389;51.490;7.338;2023-02-02T16:55:30;7.80;99.30
2763;DHT22;1389;51.490;7.338;2023-02-02T16:57:57;7.80;99.30
2763;DHT22;1389;51.490;7.338;2023-02-02T17:00:26;7.80;99.30
2763;DHT22;1389;51.490;7.338;2023-02-02T17:02:58;7.80;99.30
2763;DHT22;1389;51.490;7.338;2023-02-02T17:05:28;7.80;99.30
2763;DHT22;1389;51.490;7.338;2023-02-02T17:07:58;7.80;99.30
2763;DHT22;1389;51.490;7.338;2023-02-02T17:10:27;7.80;99.30
2763;DHT22;1389;51.490;7.338;2023-02-02T17:12:57;7.90;99.30
2763;DHT22;1389;51.490;7.338;2023-02-02T17:15:33;7.90;99.30
2763;DHT22;1389;51.490;7.338;2023-02-02T17:17:59;7.90;99.30
2763;DHT22;1389;51.490;7.338;2023-02-02T17:20:25;7.90;99.30
2763;DHT22;1389;51.490;7.338;2023-02-02T17:22:55;7.90;99.30
2763;DHT22;1389;51.490;7.338;2023-02-02T17:25:43;7.90;99.30
2763;DHT22;1389;51.490;7.338;2023-02-02T17:28:12;7.90;99.30
2763;DHT22;1389;51.490;7.338;2023-02-02T17:30:43;7.90;99.30
2763;DHT22;1389;51.490;7.338;2023-02-02T17:33:11;7.90;99.30
2763;DHT22;1389;51.490;7.338;2023-02-02T17:35:40;8.00;99.30
2763;DHT22;1389;51.490;7.338;2023-02-02T17:38:06;7.90;99.30
2763;DHT22;1389;51.490;7.338;2023-02-02T17:40:32;7.90;99.30
2763;DHT22;1389;51.490;7.338;2023-02-02T17:43:00;7.90;99.30
2763;DHT22;1389;51.490;7.338;2023-02-02T17:45:32;7.90;99.30
2763;DHT22;1389;51.490;7.338;2023-02-02T17:47:59;7.90;99.30
2763;DHT22;1389;51.490;7.338;2023-02-02T17:50:26;8.00;99.30
2763;DHT22;1389;51.490;7.338;2023-02-02T17:52:52;8.00;99.30
2763;DHT22;1389;51.490;7.338;2023-02-02T17:55:37;8.00;99.30
2763;DHT22;1389;51.490;7.338;2023-02-02T17:58:07;7.90;99.30
2763;DHT22;1389;51.490;7.338;2023-02-02T18:00:34;8.00;99.30
2763;DHT22;1389;51.490;7.338;2023-02-02T18:03:11;8.00;99.30
2763;DHT22;1389;51.490;7.338;2023-02-02T18:05:38;8.00;99.30
2763;DHT22;1389;51.490;7.338;2023-02-02T18:08:05;8.00;99.30
2763;DHT22;1389;51.490;7.338;2023-02-02T18:10:31;8.00;99.30
2763;DHT22;1389;51.490;7.338;2023-02-02T18:12:57;8.00;99.30
2763;DHT22;1389;51.490;7.338;2023-02-02T18:15:23;8.00;99.30
2763;DHT22;1389;51.490;7.338;2023-02-02T18:17:49;8.00;99.30
2763;DHT22;1389;51.490;7.338;2023-02-02T18:20:16;8.00;99.30
2763;DHT22;1389;51.490;7.338;2023-02-02T18:22:42;8.00;99.30
2763;DHT22;1389;51.490;7.338;2023-02-02T18:25:14;8.00;99.30
2763;DHT22;1389;51.490;7.338;2023-02-02T18:27:40;8.00;99.30
2763;DHT22;1389;51.490;7.338;2023-02-02T18:30:07;8.00;99.30
2763;DHT22;1389;51.490;7.338;2023-02-02T18:32:37;8.00;99.30
2763;DHT22;1389;51.490;7.338;2023-02-02T18:35:04;8.00;99.30
2763;DHT22;1389;51.490;7.338;2023-02-02T18:37:31;8.00;99.30
2763;DHT22;1389;51.490;7.338;2023-02-02T18:39:57;8.00;99.30
2763;DHT22;1389;51.490;7.338;2023-02-02T18:42:23;8.00;99.30
2763;DHT22;1389;51.490;7.338;2023-02-02T18:44:49;8.00;99.30
2763;DHT22;1389;51.490;7.338;2023-02-02T18:47:15;8.00;99.30
2763;DHT22;1389;51.490;7.338;2023-02-02T18:49:41;8.00;99.30
2763;DHT22;1389;51.490;7.338;2023-02-02T18:52:08;8.00;99.30
2763;DHT22;1389;51.490;7.338;2023-02-02T18:54:34;8.00;99.30
2763;DHT22;1389;51.490;7.338;2023-02-02T18:57:00;8.00;99.30
2763;DHT22;1389;51.490;7.338;2023-02-02T18:59:27;8.10;99.30
2763;DHT22;1389;51.490;7.338;2023-02-02T19:01:54;8.10;99.30
2763;DHT22;1389;51.490;7.338;2023-02-02T19:04:20;8.10;99.30
2763;DHT22;1389;51.490;7.338;2023-02-02T19:06:46;8.00;99.30
2763;DHT22;1389;51.490;7.338;2023-02-02T19:09:31;8.10;99.30
2763;DHT22;1389;51.490;7.338;2023-02-02T19:11:57;8.10;99.30
2763;DHT22;1389;51.490;7.338;2023-02-02T19:14:31;8.00;99.30
2763;DHT22;1389;51.490;7.338;2023-02-02T19:17:00;8.10;99.30
2763;DHT22;1389;51.490;7.338;2023-02-02T19:19:31;8.10;99.30
2763;DHT22;1389;51.490;7.338;2023-02-02T19:22:00;8.10;99.30